Lexington, Georgia
Current Conditions -  °F | °C
As of 7:51 AM on Thursday 27 Nov 2014 (Local Time) from KAHN Reporting Station
Few Clouds Few Clouds  
Wind Chill: 34°   Ceiling: Unl
Heat Index: 40°   Visibility: 10mi
Dew Point: 29°   Wind: 8mph
Humidity: 65%   Direction: 270°W
Pressure: 30.16"   Gusts: NA
Location:  33.87°N, 83.11°W
Report Text: KAHN 271251Z 27007KT 10SM FEW050 04/M02 A3016 RMK AO2 SLP216 T00441017
Loading
Personal Weather Stations






























Interactive Weather Map New forecast layout! Learn more

10-Day Weather Forecast

Advertisements
Track Severe Weather on mobile